createdAt,value
2022-12-15T00:00:30.444Z,10.50
2022-12-15T00:03:23.600Z,10.10
2022-12-15T00:06:10.054Z,10.60
2022-12-15T00:08:56.461Z,10.50
2022-12-15T00:11:42.807Z,11.23
2022-12-15T00:14:28.889Z,9.88
2022-12-15T00:17:15.107Z,10.07
2022-12-15T00:20:01.217Z,10.20
2022-12-15T00:22:47.874Z,10.20
2022-12-15T00:25:33.913Z,10.45
2022-12-15T00:28:20.399Z,10.60
2022-12-15T00:31:06.840Z,10.85
2022-12-15T00:33:57.044Z,9.13
2022-12-15T00:36:45.566Z,10.55
2022-12-15T00:39:17.686Z,10.38
2022-12-15T00:41:47.473Z,10.73
2022-12-15T00:44:20.782Z,9.60
2022-12-15T00:49:47.793Z,10.30
2022-12-15T00:52:38.239Z,10.48
2022-12-15T00:55:24.410Z,10.27
2022-12-15T00:58:12.549Z,10.50
2022-12-15T01:01:01.640Z,9.57
2022-12-15T01:03:50.965Z,9.88
2022-12-15T01:06:38.927Z,11.05
2022-12-15T01:09:31.346Z,9.75
2022-12-15T01:12:20.333Z,10.80
2022-12-15T01:15:09.131Z,10.98
2022-12-15T01:17:56.362Z,9.65
2022-12-15T01:20:37.744Z,10.60
2022-12-15T01:23:08.315Z,9.35
2022-12-15T01:25:41.099Z,9.40
2022-12-15T01:28:08.889Z,10.00
2022-12-15T01:30:39.600Z,11.00
2022-12-15T01:33:09.922Z,9.38
2022-12-15T01:35:39.109Z,9.52
2022-12-15T01:38:10.734Z,9.80
2022-12-15T01:40:47.527Z,9.50
2022-12-15T01:43:30.618Z,9.27
2022-12-15T01:46:05.020Z,10.40
2022-12-15T01:48:45.777Z,9.40
2022-12-15T01:51:25.657Z,9.07
2022-12-15T01:54:06.751Z,10.05
2022-12-15T01:56:41.241Z,11.07
2022-12-15T01:59:12.666Z,10.40
2022-12-15T02:01:43.687Z,9.48
2022-12-15T02:04:21.733Z,9.93
2022-12-15T02:06:53.400Z,9.00
2022-12-15T02:09:25.340Z,9.55
2022-12-15T02:12:12.131Z,10.18
2022-12-15T02:15:29.925Z,10.18
2022-12-15T02:18:10.101Z,9.20
2022-12-15T02:20:50.308Z,9.73
2022-12-15T02:23:47.742Z,9.43
2022-12-15T02:26:31.418Z,9.25
2022-12-15T02:29:13.210Z,10.45
2022-12-15T02:31:50.775Z,9.23
2022-12-15T02:34:37.587Z,9.05
2022-12-15T02:37:19.670Z,9.45
2022-12-15T02:39:49.759Z,10.15
2022-12-15T02:42:21.375Z,8.45
2022-12-15T02:45:12.179Z,9.27
2022-12-15T02:47:52.648Z,10.65
2022-12-15T02:50:41.221Z,9.73
2022-12-15T02:53:47.868Z,10.43
2022-12-15T02:56:25.868Z,10.30
2022-12-15T02:59:05.421Z,10.40
2022-12-15T03:01:58.231Z,9.07
2022-12-15T03:04:27.656Z,10.05
2022-12-15T03:07:01.615Z,9.32
2022-12-15T03:09:30.020Z,9.30
2022-12-15T03:12:01.167Z,10.13
2022-12-15T03:14:29.412Z,8.95
2022-12-15T03:17:04.152Z,9.95
2022-12-15T03:19:37.390Z,9.10
2022-12-15T03:22:08.462Z,9.07
2022-12-15T03:24:39.010Z,10.38
2022-12-15T03:27:06.817Z,9.27
2022-12-15T03:29:34.558Z,9.23
2022-12-15T03:32:03.445Z,9.02
2022-12-15T03:34:36.793Z,9.00
2022-12-15T03:37:09.794Z,9.25
2022-12-15T03:39:37.898Z,9.02
2022-12-15T03:42:05.740Z,9.02
2022-12-15T03:44:38.737Z,9.13
2022-12-15T03:47:09.335Z,8.70
2022-12-15T03:49:42.363Z,8.50
2022-12-15T03:52:10.269Z,9.23
2022-12-15T03:54:41.440Z,8.48
2022-12-15T03:57:12.996Z,9.25
2022-12-15T03:59:40.531Z,9.55
2022-12-15T04:02:14.878Z,9.63
2022-12-15T04:04:43.497Z,8.77
2022-12-15T04:07:17.411Z,8.93
2022-12-15T04:09:47.848Z,10.05
2022-12-15T04:12:21.374Z,10.85
2022-12-15T04:14:49.881Z,8.73
2022-12-15T04:17:22.999Z,8.57
2022-12-15T04:20:11.800Z,8.90
2022-12-15T04:22:50.927Z,9.30
2022-12-15T04:25:40.270Z,9.43
2022-12-15T04:28:33.012Z,9.50
2022-12-15T04:31:39.902Z,10.38
2022-12-15T04:34:31.431Z,8.75
2022-12-15T04:37:18.119Z,8.75
2022-12-15T04:40:09.415Z,9.13
2022-12-15T04:42:59.741Z,9.50
2022-12-15T04:45:49.043Z,8.93
2022-12-15T04:48:38.129Z,8.98
2022-12-15T04:51:24.549Z,10.38
2022-12-15T04:54:14.115Z,8.70
2022-12-15T04:57:01.923Z,9.85
2022-12-15T04:59:52.448Z,8.95
2022-12-15T05:02:43.465Z,10.43
2022-12-15T05:05:30.035Z,9.30
2022-12-15T05:08:19.910Z,9.27
2022-12-15T05:11:09.204Z,10.55
2022-12-15T05:13:58.455Z,8.70
2022-12-15T05:16:45.406Z,9.38
2022-12-15T05:19:34.414Z,9.75
2022-12-15T05:22:20.828Z,9.60
2022-12-15T05:25:06.939Z,9.40
2022-12-15T05:27:53.051Z,9.75
2022-12-15T05:30:41.530Z,8.82
2022-12-15T05:33:14.511Z,9.32
2022-12-15T05:35:47.490Z,9.02
2022-12-15T05:38:15.201Z,9.77
2022-12-15T05:40:45.899Z,9.93
2022-12-15T05:43:26.963Z,9.32
2022-12-15T05:46:00.402Z,8.88
2022-12-15T05:48:32.612Z,9.25
2022-12-15T05:51:10.977Z,10.25
2022-12-15T05:53:45.248Z,9.05
2022-12-15T05:56:14.761Z,9.13
2022-12-15T05:58:45.478Z,9.15
2022-12-15T06:01:18.451Z,9.00
2022-12-15T06:03:52.350Z,9.33
2022-12-15T06:06:20.556Z,9.27
2022-12-15T06:08:51.830Z,8.93
2022-12-15T06:11:22.437Z,9.50
2022-12-15T06:13:50.636Z,8.75
2022-12-15T06:16:28.034Z,8.77
2022-12-15T06:19:04.969Z,9.73
2022-12-15T06:21:35.894Z,9.20
2022-12-15T06:24:08.407Z,9.55
2022-12-15T06:26:39.046Z,9.02
2022-12-15T06:29:12.079Z,9.43
2022-12-15T06:31:41.408Z,11.10
2022-12-15T06:34:19.656Z,8.50
2022-12-15T06:36:50.549Z,9.13
2022-12-15T06:39:21.729Z,9.82
2022-12-15T06:41:49.112Z,9.98
2022-12-15T06:44:20.513Z,9.20
2022-12-15T06:46:48.695Z,8.88
2022-12-15T06:49:21.899Z,8.88
2022-12-15T06:51:53.098Z,9.30
2022-12-15T06:54:20.894Z,8.75
2022-12-15T06:56:52.118Z,9.65
2022-12-15T06:59:19.857Z,9.48
2022-12-15T07:01:53.072Z,9.00
2022-12-15T07:04:21.269Z,9.10
2022-12-15T07:06:49.218Z,10.07
2022-12-15T07:09:17.338Z,9.13
2022-12-15T07:11:46.568Z,9.93
2022-12-15T07:14:17.226Z,9.20
2022-12-15T07:16:47.203Z,10.00
2022-12-15T07:19:18.850Z,9.68
2022-12-15T07:21:47.578Z,10.02
2022-12-15T07:24:19.397Z,9.77
2022-12-15T07:26:49.724Z,9.68
2022-12-15T07:29:23.408Z,9.75
2022-12-15T07:31:57.403Z,9.90
2022-12-15T07:34:25.952Z,9.48
2022-12-15T07:36:53.455Z,10.05
2022-12-15T07:39:21.739Z,10.55
2022-12-15T07:41:55.435Z,9.95
2022-12-15T07:44:23.280Z,10.18
2022-12-15T07:46:51.631Z,10.25
2022-12-15T07:49:19.341Z,12.30
2022-12-15T07:51:52.651Z,9.45
2022-12-15T07:54:23.692Z,9.40
2022-12-15T07:56:53.298Z,11.43
2022-12-15T07:59:24.464Z,9.18
2022-12-15T08:01:59.817Z,9.55
2022-12-15T08:04:30.771Z,9.13
2022-12-15T08:07:04.817Z,9.20
2022-12-15T08:09:35.762Z,9.10
2022-12-15T08:12:07.421Z,9.43
2022-12-15T08:14:37.239Z,9.35
2022-12-15T08:17:08.864Z,9.45
2022-12-15T08:19:36.949Z,9.55
2022-12-15T08:22:05.756Z,9.68
2022-12-15T08:24:36.343Z,9.50
2022-12-15T08:27:13.409Z,9.55
2022-12-15T08:29:51.040Z,8.98
2022-12-15T08:32:25.182Z,9.77
2022-12-15T08:34:55.701Z,9.00
2022-12-15T08:37:24.748Z,9.48
2022-12-15T08:39:58.246Z,10.30
2022-12-15T08:42:31.332Z,9.93
2022-12-15T08:45:02.411Z,9.77
2022-12-15T08:47:33.751Z,10.50
2022-12-15T08:50:08.977Z,10.50
2022-12-15T08:53:00.619Z,10.82
2022-12-15T08:55:36.633Z,9.40
2022-12-15T08:58:10.558Z,12.93
2022-12-15T09:00:42.325Z,10.88
2022-12-15T09:03:15.222Z,9.75
2022-12-15T09:05:44.008Z,9.33
2022-12-15T09:08:17.467Z,9.82
2022-12-15T09:10:47.773Z,8.82
2022-12-15T09:13:29.018Z,9.35
2022-12-15T09:16:10.400Z,9.68
2022-12-15T09:18:47.048Z,9.90
2022-12-15T09:21:25.211Z,9.98
2022-12-15T09:24:03.519Z,11.20
2022-12-15T09:26:35.347Z,10.65
2022-12-15T09:29:06.754Z,9.95
2022-12-15T09:31:40.058Z,10.00
2022-12-15T09:34:17.551Z,9.90
2022-12-15T09:36:48.164Z,9.30
2022-12-15T09:39:24.714Z,9.40
2022-12-15T09:41:59.918Z,8.45
2022-12-15T09:44:38.204Z,9.90
2022-12-15T09:47:53.425Z,9.93
2022-12-15T09:50:32.472Z,9.63
2022-12-15T09:53:04.136Z,10.82
2022-12-15T09:55:40.443Z,9.07
2022-12-15T09:58:43.910Z,10.57
2022-12-15T10:01:38.343Z,8.73
2022-12-15T10:04:09.963Z,9.43
2022-12-15T10:07:00.515Z,10.50
2022-12-15T10:09:36.616Z,9.60
2022-12-15T10:12:33.308Z,8.73
2022-12-15T10:15:21.237Z,9.88
2022-12-15T10:18:03.227Z,10.55
2022-12-15T10:20:35.236Z,9.75
2022-12-15T10:23:19.941Z,10.15
2022-12-15T10:26:19.476Z,10.40
2022-12-15T10:28:59.008Z,8.98
2022-12-15T10:31:37.104Z,9.35
2022-12-15T10:34:38.141Z,10.05
2022-12-15T10:37:06.438Z,9.25
2022-12-15T10:39:44.994Z,8.55
2022-12-15T10:42:24.325Z,9.90
2022-12-15T10:44:57.761Z,8.93
2022-12-15T10:47:28.828Z,10.77
2022-12-15T10:50:24.484Z,12.02
2022-12-15T10:52:57.445Z,11.80
2022-12-15T10:55:43.887Z,10.27
2022-12-15T10:58:25.972Z,10.73
2022-12-15T11:01:15.246Z,10.77
2022-12-15T11:03:52.289Z,10.50
2022-12-15T11:06:28.584Z,10.65
2022-12-15T11:09:31.473Z,9.48
2022-12-15T11:12:18.625Z,10.40
2022-12-15T11:14:52.994Z,11.93
2022-12-15T11:17:22.820Z,11.63
2022-12-15T11:20:04.121Z,10.27
2022-12-15T11:22:48.409Z,11.55
2022-12-15T11:25:44.251Z,12.75
2022-12-15T11:28:28.179Z,10.98
2022-12-15T11:31:34.062Z,10.63
2022-12-15T11:34:11.968Z,10.75
2022-12-15T11:36:49.632Z,9.65
2022-12-15T11:39:51.430Z,11.38
2022-12-15T11:42:28.024Z,10.45
2022-12-15T11:45:18.979Z,11.20
2022-12-15T11:47:55.388Z,9.15
2022-12-15T11:50:42.924Z,12.07
2022-12-15T11:53:49.460Z,10.82
2022-12-15T11:56:39.292Z,11.23
2022-12-15T11:59:53.412Z,10.82
2022-12-15T12:02:37.118Z,9.60
2022-12-15T12:05:30.166Z,9.77
2022-12-15T12:08:00.799Z,9.65
2022-12-15T12:10:50.109Z,10.95
2022-12-15T12:13:44.024Z,9.70
2022-12-15T12:16:44.039Z,10.48
2022-12-15T12:19:44.173Z,9.57
2022-12-15T12:22:23.629Z,10.20
2022-12-15T12:25:05.229Z,9.32
2022-12-15T12:27:53.099Z,9.23
2022-12-15T12:30:23.473Z,10.02
2022-12-15T12:33:09.053Z,9.57
2022-12-15T12:35:53.610Z,9.35
2022-12-15T12:38:31.481Z,10.70
2022-12-15T12:41:11.217Z,9.48
2022-12-15T12:43:52.641Z,9.27
2022-12-15T12:46:26.698Z,10.52
2022-12-15T12:49:26.658Z,10.18
2022-12-15T12:51:58.683Z,10.43
2022-12-15T12:54:49.114Z,10.00
2022-12-15T12:57:20.956Z,12.20
2022-12-15T12:59:57.088Z,8.95
2022-12-15T13:02:30.968Z,10.40
2022-12-15T13:05:27.519Z,9.10
2022-12-15T13:08:06.446Z,8.88
2022-12-15T13:10:36.291Z,9.00
2022-12-15T13:13:21.537Z,9.23
2022-12-15T13:16:07.225Z,9.32
2022-12-15T13:19:07.659Z,10.63
2022-12-15T13:21:44.499Z,10.57
2022-12-15T13:24:33.265Z,10.63
2022-12-15T13:27:10.135Z,10.20
2022-12-15T13:30:06.100Z,12.13
2022-12-15T13:32:45.243Z,8.88
2022-12-15T13:35:32.386Z,8.45
2022-12-15T13:38:16.823Z,9.18
2022-12-15T13:40:54.330Z,7.80
2022-12-15T13:43:41.270Z,8.98
2022-12-15T13:46:27.276Z,11.48
2022-12-15T13:49:18.074Z,8.55
2022-12-15T13:52:02.187Z,8.82
2022-12-15T13:54:40.522Z,10.48
2022-12-15T13:57:14.860Z,9.05
2022-12-15T13:59:53.433Z,8.98
2022-12-15T14:02:36.394Z,9.50
2022-12-15T14:05:28.865Z,9.40
2022-12-15T14:08:12.606Z,9.50
2022-12-15T14:10:52.904Z,8.02
2022-12-15T14:13:26.254Z,9.40
2022-12-15T14:16:22.755Z,8.40
2022-12-15T14:19:05.235Z,9.30
2022-12-15T14:21:35.703Z,8.40
2022-12-15T14:27:33.086Z,8.73
2022-12-15T14:30:15.888Z,9.23
2022-12-15T14:32:54.952Z,8.45
2022-12-15T14:35:42.358Z,8.73
2022-12-15T14:38:22.764Z,9.55
2022-12-15T14:40:56.374Z,8.85
2022-12-15T14:43:47.024Z,10.50
2022-12-15T14:46:40.669Z,9.38
2022-12-15T14:49:20.688Z,7.82
2022-12-15T14:51:58.774Z,9.02
2022-12-15T14:54:57.569Z,9.85
2022-12-15T14:57:43.679Z,8.50
2022-12-15T15:00:32.374Z,9.00
2022-12-15T15:03:19.172Z,8.48
2022-12-15T15:06:02.930Z,8.70
2022-12-15T15:08:42.893Z,8.00
2022-12-15T15:11:29.920Z,8.65
2022-12-15T15:14:17.491Z,9.52
2022-12-15T15:17:06.402Z,9.50
2022-12-15T15:19:57.246Z,8.82
2022-12-15T15:22:41.603Z,9.05
2022-12-15T15:25:57.323Z,8.25
2022-12-15T15:28:38.471Z,8.70
2022-12-15T15:31:42.284Z,8.77
2022-12-15T15:34:18.877Z,10.43
2022-12-15T15:36:55.706Z,11.88
2022-12-15T15:39:27.712Z,9.15
2022-12-15T15:42:05.228Z,9.02
2022-12-15T15:44:37.144Z,8.90
2022-12-15T15:47:23.511Z,9.10
2022-12-15T15:50:02.456Z,8.95
2022-12-15T15:52:37.821Z,7.53
2022-12-15T15:55:25.940Z,8.30
2022-12-15T15:58:02.075Z,8.95
2022-12-15T16:00:36.744Z,8.73
2022-12-15T16:03:13.695Z,9.38
2022-12-15T16:05:55.513Z,10.52
2022-12-15T16:08:36.823Z,8.90
2022-12-15T16:11:05.384Z,8.55
2022-12-15T16:13:36.387Z,9.07
2022-12-15T16:16:08.516Z,9.75
2022-12-15T16:18:36.685Z,9.00
2022-12-15T16:21:04.890Z,9.02
2022-12-15T16:23:37.613Z,15.43
2022-12-15T16:26:15.347Z,9.73
2022-12-15T16:28:47.067Z,9.63
2022-12-15T16:31:42.012Z,9.40
2022-12-15T16:34:12.722Z,9.82
2022-12-15T16:36:46.568Z,9.05
2022-12-15T16:39:34.097Z,10.60
2022-12-15T16:42:02.748Z,11.05
2022-12-15T16:44:31.160Z,10.23
2022-12-15T16:46:59.288Z,10.52
2022-12-15T16:49:35.068Z,11.35
2022-12-15T16:52:23.561Z,10.98
2022-12-15T16:54:51.736Z,10.85
2022-12-15T16:57:19.664Z,12.32
2022-12-15T16:59:50.690Z,12.60
2022-12-15T17:02:29.294Z,12.75
2022-12-15T17:05:06.739Z,13.57
2022-12-15T17:07:46.451Z,12.02
2022-12-15T17:10:26.073Z,12.85
2022-12-15T17:13:17.411Z,13.88
2022-12-15T17:15:50.891Z,12.25
2022-12-15T17:18:22.537Z,13.20
2022-12-15T17:21:08.994Z,12.45
2022-12-15T17:23:52.815Z,13.93
2022-12-15T17:26:29.949Z,13.27
2022-12-15T17:29:13.320Z,12.82
2022-12-15T17:31:41.360Z,13.60
2022-12-15T17:34:34.718Z,11.43
2022-12-15T17:37:05.080Z,14.73
2022-12-15T17:39:35.317Z,13.88
2022-12-15T17:42:17.461Z,13.55
2022-12-15T17:44:52.088Z,14.13
2022-12-15T17:47:20.308Z,12.50
2022-12-15T17:49:52.450Z,11.27
2022-12-15T17:52:35.916Z,13.48
2022-12-15T17:55:21.244Z,13.02
2022-12-15T17:57:59.807Z,12.63
2022-12-15T18:00:35.160Z,11.68
2022-12-15T18:03:05.660Z,12.60
2022-12-15T18:05:36.564Z,12.15
2022-12-15T18:08:14.928Z,12.90
2022-12-15T18:10:53.493Z,12.82
2022-12-15T18:13:35.127Z,12.77
2022-12-15T18:16:07.264Z,12.45
2022-12-15T18:18:46.235Z,11.65
2022-12-15T18:21:17.567Z,11.63
2022-12-15T18:23:50.776Z,12.60
2022-12-15T18:26:18.990Z,12.20
2022-12-15T18:28:52.342Z,12.52
2022-12-15T18:31:29.376Z,12.80
2022-12-15T18:34:04.305Z,11.88
2022-12-15T18:36:38.608Z,11.52
2022-12-15T18:39:23.856Z,11.85
2022-12-15T18:41:54.452Z,12.68
2022-12-15T18:44:24.802Z,12.48
2022-12-15T18:46:55.580Z,12.38
2022-12-15T18:49:24.197Z,11.27
2022-12-15T18:51:52.106Z,10.88
2022-12-15T18:54:24.578Z,13.73
2022-12-15T18:56:52.794Z,11.45
2022-12-15T18:59:27.784Z,11.25
2022-12-15T19:02:00.202Z,10.73
2022-12-15T19:04:27.857Z,11.93
2022-12-15T19:07:06.646Z,10.10
2022-12-15T19:09:42.992Z,10.15
2022-12-15T19:12:17.911Z,9.25
2022-12-15T19:14:55.087Z,11.00
2022-12-15T19:17:44.144Z,11.43
2022-12-15T19:20:41.274Z,10.93
2022-12-15T19:23:12.664Z,11.05
2022-12-15T19:25:45.783Z,10.98
2022-12-15T19:28:21.574Z,11.27
2022-12-15T19:30:58.099Z,10.80
2022-12-15T19:33:28.401Z,10.07
2022-12-15T19:35:57.554Z,10.18
2022-12-15T19:38:28.804Z,9.73
2022-12-15T19:41:00.279Z,11.27
2022-12-15T19:43:30.702Z,11.40
2022-12-15T19:46:03.923Z,11.07
2022-12-15T19:48:37.363Z,10.57
2022-12-15T19:51:09.206Z,10.85
2022-12-15T19:53:42.313Z,10.18
2022-12-15T19:56:19.724Z,10.93
2022-12-15T19:58:50.452Z,11.73
2022-12-15T20:01:25.570Z,10.32
2022-12-15T20:03:59.146Z,10.52
2022-12-15T20:06:28.577Z,10.88
2022-12-15T20:08:57.005Z,10.20
2022-12-15T20:11:31.177Z,11.45
2022-12-15T20:14:02.544Z,10.43
2022-12-15T20:16:33.772Z,10.48
2022-12-15T20:19:06.745Z,9.70
2022-12-15T20:21:43.803Z,9.55
2022-12-15T20:24:19.938Z,10.85
2022-12-15T20:26:50.365Z,10.27
2022-12-15T20:29:32.305Z,9.60
2022-12-15T20:32:00.788Z,10.13
2022-12-15T20:34:33.855Z,10.15
2022-12-15T20:37:01.589Z,10.63
2022-12-15T20:39:38.200Z,10.82
2022-12-15T20:42:13.819Z,10.00
2022-12-15T20:44:44.469Z,9.25
2022-12-15T20:47:24.661Z,10.55
2022-12-15T20:49:56.795Z,9.90
2022-12-15T20:52:27.696Z,9.63
2022-12-15T20:54:58.116Z,10.02
2022-12-15T20:57:28.636Z,9.57
2022-12-15T20:59:59.204Z,10.10
2022-12-15T21:02:30.256Z,9.52
2022-12-15T21:05:01.305Z,9.57
2022-12-15T21:07:35.250Z,10.25
2022-12-15T21:10:06.149Z,10.80
2022-12-15T21:12:36.637Z,9.23
2022-12-15T21:15:23.157Z,9.15
2022-12-15T21:18:19.721Z,9.75
2022-12-15T21:20:58.897Z,10.13
2022-12-15T21:23:32.061Z,9.75
2022-12-15T21:26:01.932Z,8.95
2022-12-15T21:28:32.634Z,8.90
2022-12-15T21:31:03.879Z,8.90
2022-12-15T21:33:32.388Z,9.20
2022-12-15T21:36:02.551Z,8.98
2022-12-15T21:38:40.741Z,8.82
2022-12-15T21:41:13.887Z,8.88
2022-12-15T21:43:48.203Z,9.90
2022-12-15T21:46:27.539Z,8.93
2022-12-15T21:49:14.494Z,8.88
2022-12-15T21:51:57.935Z,9.38
2022-12-15T21:54:31.409Z,9.65
2022-12-15T21:57:05.676Z,9.68
2022-12-15T21:59:35.983Z,8.93
2022-12-15T22:02:28.447Z,7.97
2022-12-15T22:04:58.960Z,9.95
2022-12-15T22:07:29.236Z,8.80
2022-12-15T22:10:02.160Z,9.27
2022-12-15T22:12:30.303Z,7.70
2022-12-15T22:15:00.613Z,9.23
2022-12-15T22:17:33.119Z,8.95
2022-12-15T22:20:13.998Z,8.00
2022-12-15T22:22:44.682Z,8.30
2022-12-15T22:25:23.909Z,8.43
2022-12-15T22:27:52.659Z,8.60
2022-12-15T22:30:30.776Z,8.90
2022-12-15T22:33:01.247Z,8.02
2022-12-15T22:35:37.176Z,9.02
2022-12-15T22:38:05.732Z,8.15
2022-12-15T22:40:44.467Z,8.63
2022-12-15T22:43:36.838Z,7.88
2022-12-15T22:46:10.604Z,8.40
2022-12-15T22:48:47.796Z,8.13
2022-12-15T22:51:22.378Z,8.18
2022-12-15T22:53:55.084Z,9.02
2022-12-15T22:56:28.793Z,8.52
2022-12-15T23:01:34.661Z,8.02
2022-12-15T23:04:04.678Z,7.90
2022-12-15T23:06:35.371Z,8.07
2022-12-15T23:09:08.903Z,7.78
2022-12-15T23:11:41.910Z,8.02
2022-12-15T23:14:15.849Z,7.55
2022-12-15T23:16:46.198Z,8.50
2022-12-15T23:19:24.018Z,8.57
2022-12-15T23:21:56.154Z,8.02
2022-12-15T23:24:28.021Z,7.40
2022-12-15T23:27:01.857Z,7.85
2022-12-15T23:29:33.089Z,7.82
2022-12-15T23:32:08.897Z,7.78
2022-12-15T23:34:39.917Z,7.97
2022-12-15T23:37:15.333Z,7.50
2022-12-15T23:39:46.112Z,6.68
2022-12-15T23:42:19.411Z,8.00
2022-12-15T23:44:49.368Z,8.77
2022-12-15T23:47:24.441Z,7.90
2022-12-15T23:49:54.638Z,7.45
2022-12-15T23:52:22.705Z,7.97
2022-12-15T23:54:56.175Z,7.90
2022-12-15T23:57:28.683Z,7.47
